Time;durP1;ratioP1;P1;durP2;ratioP2;P2;SDS_P1;SDS_P2;PMS_P1;PMS_P2;Temp;Humidity;BMP_temperature;BMP_pressure;BME280_temperature;BME280_humidity;BME280_pressure;Samples;Min_cycle;Max_cycle;Signal;HPM_P1;HPM_P2
2020/12/31 00:00:55;;;;;;;3.63;1.60;;;18.60;73.30;;;;;;5058018;28;20122;-72
2020/12/31 00:03:25;;;;;;;2.85;1.60;;;18.60;73.40;;;;;;5048743;28;20420;-64
2020/12/31 00:05:58;;;;;;;3.83;1.77;;;18.70;73.50;;;;;;5051747;28;20047;-63
2020/12/31 00:08:28;;;;;;;;;;;18.70;73.40;;;;;;5054686;28;20040;-64
2020/12/31 00:10:59;;;;;;;3.40;1.20;;;18.70;73.50;;;;;;5057790;28;20487;-73
2020/12/31 00:13:30;;;;;;;;;;;18.70;73.60;;;;;;5054447;28;21093;-73
2020/12/31 00:16:10;;;;;;;5.78;2.17;;;18.70;73.60;;;;;;5048435;28;19924;-73
2020/12/31 00:18:45;;;;;;;3.88;1.85;;;18.70;73.70;;;;;;5054941;28;20094;-63
2020/12/31 00:21:15;;;;;;;2.15;1.75;;;18.80;74.40;;;;;;5050195;28;20049;-74
2020/12/31 00:23:44;;;;;;;4.78;2.08;;;18.70;73.90;;;;;;5047875;28;20041;-74
2020/12/31 00:26:14;;;;;;;4.38;1.98;;;18.80;74.00;;;;;;5051000;28;20346;-62
2020/12/31 00:28:47;;;;;;;4.82;3.22;;;18.80;74.00;;;;;;5048857;28;20067;-63
2020/12/31 00:31:18;;;;;;;2.20;2.00;;;18.80;74.10;;;;;;5047584;28;20500;-63
2020/12/31 00:33:51;;;;;;;2.15;1.90;;;18.80;74.20;;;;;;5059892;28;20071;-62
2020/12/31 00:36:22;;;;;;;2.50;2.08;;;18.90;74.30;;;;;;5050259;28;20174;-62
2020/12/31 00:38:51;;;;;;;3.80;1.90;;;18.80;74.20;;;;;;5061139;28;20056;-63
2020/12/31 00:41:22;;;;;;;3.22;2.05;;;18.90;74.20;;;;;;5047492;28;20068;-63
2020/12/31 00:43:52;;;;;;;2.72;1.42;;;18.90;74.30;;;;;;5053083;28;20497;-64
2020/12/31 00:46:23;;;;;;;2.65;2.05;;;18.90;74.30;;;;;;5043853;28;20237;-69
2020/12/31 00:48:55;;;;;;;3.20;1.77;;;18.90;74.30;;;;;;5044062;28;20557;-62
2020/12/31 00:51:26;;;;;;;;;;;18.90;74.40;;;;;;5050782;28;20172;-71
2020/12/31 00:53:57;;;;;;;3.45;1.65;;;18.90;74.40;;;;;;5052819;28;19924;-70
2020/12/31 00:56:29;;;;;;;2.50;1.90;;;18.90;74.40;;;;;;5054835;28;20135;-72
2020/12/31 00:59:01;;;;;;;3.10;1.75;;;18.90;74.50;;;;;;5044940;28;20041;-70
2020/12/31 01:01:34;;;;;;;4.40;1.85;;;18.90;74.50;;;;;;5057824;28;20072;-69
2020/12/31 01:04:08;;;;;;;3.30;1.73;;;18.90;74.70;;;;;;5048289;28;20044;-68
2020/12/31 01:06:39;;;;;;;1.98;1.50;;;19.00;74.80;;;;;;5055869;28;20036;-63
2020/12/31 01:09:10;;;;;;;;;;;19.00;74.70;;;;;;5056443;28;20044;-62
2020/12/31 01:11:41;;;;;;;2.60;1.80;;;19.10;74.90;;;;;;5057899;28;19929;-62
2020/12/31 01:14:11;;;;;;;3.80;1.60;;;19.20;75.00;;;;;;5055436;28;20041;-67
2020/12/31 01:16:47;;;;;;;3.45;1.80;;;19.20;74.80;;;;;;5061139;28;20071;-60
2020/12/31 01:19:19;;;;;;;3.72;1.63;;;19.30;74.80;;;;;;5054757;28;20045;-67
2020/12/31 01:21:53;;;;;;;4.10;1.88;;;19.40;74.90;;;;;;5053586;28;20059;-61
2020/12/31 01:24:23;;;;;;;3.72;1.60;;;19.40;74.70;;;;;;5052532;28;20086;-61
2020/12/31 01:26:53;;;;;;;2.58;1.80;;;19.50;74.60;;;;;;5056098;28;20361;-61
2020/12/31 01:29:23;;;;;;;1.40;1.30;;;19.50;74.50;;;;;;5055739;28;20049;-61
2020/12/31 01:31:54;;;;;;;4.88;1.90;;;19.60;74.40;;;;;;5057973;28;20582;-61
2020/12/31 01:34:24;;;;;;;1.92;1.58;;;19.60;74.30;;;;;;5054352;28;20041;-68
2020/12/31 01:36:54;;;;;;;3.17;1.80;;;19.60;74.10;;;;;;5052811;28;20045;-61
2020/12/31 01:39:24;;;;;;;;;;;19.70;74.10;;;;;;5051277;28;20033;-62
2020/12/31 01:42:01;;;;;;;2.58;1.60;;;19.70;74.10;;;;;;5058492;28;19924;-61
2020/12/31 01:44:33;;;;;;;3.90;2.03;;;19.70;73.80;;;;;;5052881;28;20179;-61
2020/12/31 01:47:14;;;;;;;2.63;1.98;;;19.80;73.70;;;;;;5057221;28;20047;-61
2020/12/31 01:49:48;;;;;;;3.28;1.80;;;19.80;73.60;;;;;;5053834;28;20248;-68
2020/12/31 01:52:23;;;;;;;4.40;1.90;;;19.90;73.70;;;;;;5054855;28;20552;-67
2020/12/31 01:54:55;;;;;;;4.20;1.65;;;19.90;73.50;;;;;;5051160;28;20040;-65
2020/12/31 01:57:29;;;;;;;2.42;1.95;;;19.90;73.50;;;;;;5057222;28;20047;-66
2020/12/31 02:00:01;;;;;;;2.53;2.10;;;19.90;73.30;;;;;;5054354;28;20043;-66
2020/12/31 02:02:40;;;;;;;3.28;2.00;;;19.90;73.30;;;;;;5057251;28;20161;-67
2020/12/31 02:05:11;;;;;;;2.07;1.93;;;20.00;73.40;;;;;;5052558;28;20056;-65
2020/12/31 02:07:47;;;;;;;1.73;1.63;;;20.00;73.20;;;;;;5056876;28;20113;-65
2020/12/31 02:10:21;;;;;;;2.22;2.00;;;20.10;73.10;;;;;;5049667;28;20057;-64
2020/12/31 02:12:54;;;;;;;2.10;1.90;;;20.10;73.20;;;;;;5053576;28;20068;-65
2020/12/31 02:15:26;;;;;;;2.42;2.15;;;20.10;73.10;;;;;;5050195;28;20063;-66
2020/12/31 02:17:59;;;;;;;2.28;2.08;;;20.10;73.10;;;;;;5056059;28;20408;-65
2020/12/31 02:20:33;;;;;;;4.28;2.08;;;20.10;73.10;;;;;;5052370;28;20186;-65
2020/12/31 02:23:05;;;;;;;4.07;1.95;;;20.20;73.10;;;;;;5056707;28;20048;-64
2020/12/31 02:25:36;;;;;;;2.25;1.95;;;20.20;73.00;;;;;;5051669;28;20044;-63
2020/12/31 02:28:06;;;;;;;4.40;1.80;;;20.20;73.00;;;;;;5045895;28;20056;-66
2020/12/31 02:30:37;;;;;;;2.08;1.90;;;20.30;72.80;;;;;;5050138;28;20123;-66
2020/12/31 02:33:09;;;;;;;2.28;1.80;;;20.30;72.70;;;;;;5061481;28;20044;-68
2020/12/31 02:35:39;;;;;;;5.60;2.55;;;20.30;72.70;;;;;;5051046;28;20041;-67
2020/12/31 02:38:08;;;;;;;2.47;1.95;;;20.40;72.80;;;;;;5053146;28;20404;-68
2020/12/31 02:40:39;;;;;;;2.38;2.05;;;20.40;72.70;;;;;;5044960;28;20082;-68
2020/12/31 02:43:08;;;;;;;1.80;1.70;;;20.40;72.60;;;;;;5043277;28;20409;-67
2020/12/31 02:45:42;;;;;;;3.90;1.70;;;20.40;72.60;;;;;;5055181;28;20045;-69
2020/12/31 02:48:14;;;;;;;3.85;2.45;;;20.40;73.10;;;;;;5054132;28;20056;-69
2020/12/31 02:50:45;;;;;;;4.32;2.28;;;20.40;72.50;;;;;;5046354;28;20086;-68
2020/12/31 02:53:16;;;;;;;5.38;2.50;;;20.50;73.20;;;;;;5048545;28;20033;-71
2020/12/31 02:55:48;;;;;;;3.35;2.30;;;20.50;72.40;;;;;;5057347;28;20052;-68
2020/12/31 02:58:19;;;;;;;2.67;2.40;;;20.50;72.40;;;;;;5049701;28;20029;-70
2020/12/31 03:00:51;;;;;;;3.53;2.60;;;20.50;72.50;;;;;;5054812;28;20113;-70
2020/12/31 03:03:22;;;;;;;4.05;3.13;;;20.50;72.40;;;;;;5057412;28;20436;-67
2020/12/31 03:05:54;;;;;;;4.25;3.83;;;20.50;72.50;;;;;;5049856;28;20041;-70
2020/12/31 03:08:26;;;;;;;3.85;2.83;;;20.60;72.50;;;;;;5052173;28;20376;-69
2020/12/31 03:10:58;;;;;;;2.92;2.72;;;20.50;72.50;;;;;;5064267;28;20116;-69
2020/12/31 03:13:29;;;;;;;3.40;3.10;;;20.60;72.50;;;;;;5051320;28;20048;-69
2020/12/31 03:16:00;;;;;;;4.35;3.95;;;20.60;72.50;;;;;;5059474;28;20621;-70
2020/12/31 03:18:32;;;;;;;7.32;3.80;;;20.60;72.50;;;;;;5047558;28;20037;-70
2020/12/31 03:21:03;;;;;;;3.65;2.70;;;20.70;73.00;;;;;;5053449;28;20055;-69
2020/12/31 03:23:33;;;;;;;8.60;3.95;;;20.70;72.60;;;;;;5054131;28;20075;-70
2020/12/31 03:26:03;;;;;;;7.28;3.30;;;20.70;72.50;;;;;;5059494;28;20056;-66
2020/12/31 03:28:32;;;;;;;5.38;3.03;;;20.70;72.70;;;;;;5051672;28;20054;-68
2020/12/31 03:31:02;;;;;;;5.45;2.70;;;20.70;72.70;;;;;;5053918;28;20045;-68
2020/12/31 03:33:35;;;;;;;3.15;2.90;;;20.70;72.80;;;;;;5050348;28;20045;-68
2020/12/31 03:36:04;;;;;;;4.35;3.22;;;20.70;72.90;;;;;;5052006;28;20054;-69
2020/12/31 03:38:35;;;;;;;5.75;3.45;;;20.70;72.90;;;;;;5060580;28;20049;-68
2020/12/31 03:41:09;;;;;;;6.28;2.78;;;20.70;72.90;;;;;;5063841;28;20041;-67
2020/12/31 03:43:39;;;;;;;4.18;3.70;;;20.70;73.00;;;;;;5056507;28;20045;-67
2020/12/31 03:46:10;;;;;;;4.95;3.28;;;20.70;73.10;;;;;;5061023;28;20560;-69
2020/12/31 03:48:41;;;;;;;6.15;3.38;;;20.70;73.20;;;;;;5053369;28;20037;-71
2020/12/31 03:51:13;;;;;;;6.43;3.08;;;20.80;73.30;;;;;;5052793;28;20595;-68
2020/12/31 03:53:46;;;;;;;;;;;20.70;73.30;;;;;;5050870;28;20041;-68
2020/12/31 03:56:18;;;;;;;4.88;2.95;;;20.70;73.30;;;;;;5042362;28;19992;-68
2020/12/31 03:58:49;;;;;;;4.57;3.38;;;20.70;73.50;;;;;;5054689;28;20072;-68
2020/12/31 04:01:19;;;;;;;;;;;20.80;73.60;;;;;;5060262;28;20232;-69
2020/12/31 04:03:50;;;;;;;6.85;4.22;;;20.80;73.60;;;;;;5061402;28;19928;-68
2020/12/31 04:06:22;;;;;;;5.82;3.00;;;20.80;73.60;;;;;;5056202;28;20044;-69
2020/12/31 04:08:55;;;;;;;7.13;3.00;;;20.80;73.70;;;;;;5055324;28;20048;-69
2020/12/31 04:11:26;;;;;;;5.28;2.75;;;20.80;73.70;;;;;;5058954;28;20242;-68
2020/12/31 04:13:58;;;;;;;2.78;2.25;;;20.90;73.60;;;;;;5060553;28;20102;-68
2020/12/31 04:16:29;;;;;;;5.50;2.97;;;20.90;73.60;;;;;;5059332;28;20048;-69
2020/12/31 04:19:01;;;;;;;4.43;3.20;;;20.90;73.60;;;;;;5063283;28;20044;-69
2020/12/31 04:21:31;;;;;;;5.63;2.88;;;21.00;73.60;;;;;;5051547;28;20049;-68
2020/12/31 04:24:03;;;;;;;5.15;3.15;;;21.00;73.60;;;;;;5055422;28;20067;-67
2020/12/31 04:26:33;;;;;;;4.57;2.90;;;21.00;73.50;;;;;;5057433;28;20052;-67
2020/12/31 04:29:05;;;;;;;4.75;3.20;;;21.00;73.40;;;;;;5061576;28;20439;-68
2020/12/31 04:31:36;;;;;;;4.65;3.30;;;21.00;73.50;;;;;;5058274;28;20041;-68
2020/12/31 04:34:09;;;;;;;5.22;3.40;;;21.10;73.50;;;;;;5048779;28;20178;-67
2020/12/31 04:36:40;;;;;;;6.90;3.65;;;21.10;73.40;;;;;;5049802;28;20510;-68
2020/12/31 04:39:13;;;;;;;5.65;3.28;;;21.10;73.40;;;;;;5052241;28;20028;-68
2020/12/31 04:41:45;;;;;;;4.38;3.30;;;21.10;73.50;;;;;;5059076;28;20066;-69
2020/12/31 04:44:17;;;;;;;4.32;3.33;;;21.10;73.40;;;;;;5049075;28;20044;-69
2020/12/31 04:46:55;;;;;;;5.65;3.08;;;21.10;73.50;;;;;;5051819;28;20044;-68
2020/12/31 04:49:58;;;;;;;6.60;2.97;;;21.10;73.50;;;;;;5064493;28;20052;-68
2020/12/31 04:52:33;;;;;;;3.95;3.13;;;21.10;73.40;;;;;;5018246;28;20061;-66
2020/12/31 04:55:06;;;;;;;4.65;2.95;;;21.20;73.40;;;;;;5056251;28;20048;-69
2020/12/31 04:57:37;;;;;;;7.82;4.00;;;21.20;73.50;;;;;;5047227;28;20080;-65
2020/12/31 05:00:09;;;;;;;4.32;3.45;;;21.20;73.40;;;;;;5050144;28;20045;-64
2020/12/31 05:02:40;;;;;;;5.35;3.08;;;21.20;73.40;;;;;;5050291;28;20339;-64
2020/12/31 05:05:12;;;;;;;5.13;2.85;;;21.20;73.40;;;;;;5049754;28;20133;-62
2020/12/31 05:07:51;;;;;;;4.80;4.03;;;21.20;73.40;;;;;;5048801;28;20037;-63
2020/12/31 05:10:23;;;;;;;5.15;3.03;;;21.20;73.50;;;;;;5059423;28;20033;-63
2020/12/31 05:13:07;;;;;;;5.18;3.03;;;21.30;73.20;;;;;;5056663;28;20047;-63
2020/12/31 05:15:38;;;;;;;3.78;2.58;;;21.30;73.40;;;;;;5058550;28;20126;-63
2020/12/31 05:18:18;;;;;;;4.38;3.13;;;21.30;73.30;;;;;;5069679;28;20090;-63
2020/12/31 05:20:56;;;;;;;4.35;2.70;;;21.30;73.40;;;;;;5060144;28;20645;-63
2020/12/31 05:23:29;;;;;;;5.90;3.58;;;21.40;73.30;;;;;;5053757;28;20456;-66
2020/12/31 05:26:03;;;;;;;7.05;3.00;;;21.30;73.30;;;;;;5063184;28;20048;-60
2020/12/31 05:28:42;;;;;;;4.22;2.30;;;21.40;73.30;;;;;;5056456;28;20556;-63
2020/12/31 05:31:13;;;;;;;4.38;2.53;;;21.40;73.40;;;;;;5058874;28;20129;-63
2020/12/31 05:33:43;;;;;;;2.97;2.35;;;21.40;73.40;;;;;;5052790;28;20051;-62
2020/12/31 05:36:20;;;;;;;3.95;1.95;;;21.40;73.20;;;;;;5054635;28;20041;-62
2020/12/31 05:38:56;;;;;;;5.63;2.67;;;21.40;73.40;;;;;;5058288;28;20506;-62
2020/12/31 05:41:27;;;;;;;6.20;2.45;;;21.50;73.40;;;;;;5059595;28;20094;-63
2020/12/31 05:43:59;;;;;;;4.13;2.67;;;21.50;73.40;;;;;;5055572;28;20040;-63
2020/12/31 05:46:30;;;;;;;2.97;2.45;;;21.50;73.40;;;;;;5057869;28;20099;-63
2020/12/31 05:49:10;;;;;;;4.93;2.97;;;21.50;73.30;;;;;;5052210;28;20370;-62
2020/12/31 05:51:42;;;;;;;6.78;2.92;;;21.50;73.40;;;;;;5056489;28;20048;-63
2020/12/31 05:54:16;;;;;;;7.78;3.38;;;21.50;73.30;;;;;;5057370;28;20044;-63
2020/12/31 05:56:46;;;;;;;5.20;3.58;;;21.50;73.40;;;;;;5059704;28;20045;-62
2020/12/31 05:59:26;;;;;;;4.32;2.75;;;21.50;73.30;;;;;;5054724;28;20037;-63
2020/12/31 06:02:04;;;;;;;3.83;2.55;;;21.60;73.40;;;;;;5062346;28;20044;-62
2020/12/31 06:04:47;;;;;;;6.18;2.67;;;21.60;73.30;;;;;;5051442;28;20332;-64
2020/12/31 06:07:32;;;;;;;7.05;3.03;;;21.60;73.40;;;;;;5051516;28;20044;-63
2020/12/31 06:10:09;;;;;;;3.78;2.33;;;21.60;73.40;;;;;;5057373;28;20496;-64
2020/12/31 06:13:04;;;;;;;4.85;2.78;;;21.60;73.40;;;;;;5054803;28;20060;-63
2020/12/31 06:15:38;;;;;;;3.33;2.20;;;21.60;73.40;;;;;;5054456;28;20055;-63
2020/12/31 06:18:11;;;;;;;5.35;2.65;;;21.60;73.40;;;;;;5055230;28;20064;-66
2020/12/31 06:20:54;;;;;;;6.53;2.53;;;21.60;73.00;;;;;;5056909;28;20044;-63
2020/12/31 06:23:38;;;;;;;6.63;2.58;;;21.60;73.30;;;;;;5055904;28;20063;-63
2020/12/31 06:26:14;;;;;;;8.75;2.95;;;21.70;73.40;;;;;;5054906;28;20394;-62
2020/12/31 06:28:48;;;;;;;6.88;2.92;;;21.70;73.50;;;;;;5057963;28;20044;-66
2020/12/31 06:31:21;;;;;;;6.28;2.80;;;21.70;73.50;;;;;;5053524;28;20162;-63
2020/12/31 06:33:52;;;;;;;8.73;2.25;;;21.70;73.60;;;;;;5059054;28;20040;-63
2020/12/31 06:36:22;;;;;;;5.45;2.38;;;21.70;73.50;;;;;;5051644;28;20055;-63
2020/12/31 06:38:53;;;;;;;5.63;2.47;;;21.70;73.60;;;;;;5054931;28;20040;-65
2020/12/31 06:41:42;;;;;;;6.40;2.40;;;21.70;73.60;;;;;;5064981;28;20118;-63
2020/12/31 06:44:14;;;;;;;8.85;2.38;;;21.80;73.70;;;;;;5059007;28;20131;-62
2020/12/31 06:46:46;;;;;;;6.13;2.33;;;21.80;73.60;;;;;;5057883;28;20131;-62
2020/12/31 06:49:21;;;;;;;9.30;3.53;;;21.80;73.60;;;;;;5056461;28;20049;-62
2020/12/31 06:51:53;;;;;;;5.85;2.33;;;21.80;73.80;;;;;;5046374;28;20118;-63
2020/12/31 06:54:30;;;;;;;3.97;2.10;;;21.80;73.70;;;;;;5050070;28;20074;-62
2020/12/31 06:57:01;;;;;;;10.95;2.45;;;21.90;73.80;;;;;;5054842;28;20498;-63
2020/12/31 06:59:41;;;;;;;8.90;2.78;;;21.90;73.90;;;;;;5061296;28;20059;-63
2020/12/31 07:02:26;;;;;;;10.75;3.22;;;21.90;74.00;;;;;;5046939;28;20381;-63
2020/12/31 07:04:59;;;;;;;10.55;3.00;;;21.90;74.10;;;;;;5049267;28;20077;-66
2020/12/31 07:07:31;;;;;;;7.75;2.95;;;21.90;74.10;;;;;;5049434;28;20049;-67
2020/12/31 07:10:03;;;;;;;;;;;21.90;74.00;;;;;;5051988;28;20044;-63
2020/12/31 07:12:35;;;;;;;;;;;21.90;74.00;;;;;;5061589;28;20089;-63
2020/12/31 07:15:06;;;;;;;8.25;2.40;;;21.90;74.10;;;;;;5059010;28;19929;-63
2020/12/31 07:17:41;;;;;;;8.20;2.63;;;21.90;74.10;;;;;;5054272;28;20041;-63
2020/12/31 07:20:20;;;;;;;6.88;2.60;;;21.90;74.20;;;;;;5056199;28;20041;-63
2020/12/31 07:22:51;;;;;;;7.15;2.50;;;21.90;74.30;;;;;;5058136;28;20139;-62
2020/12/31 07:25:21;;;;;;;9.60;2.78;;;21.90;74.20;;;;;;5063429;28;20119;-63
2020/12/31 07:27:50;;;;;;;6.38;2.55;;;21.90;74.40;;;;;;5055762;28;20047;-61
2020/12/31 07:30:22;;;;;;;6.65;2.35;;;21.90;74.30;;;;;;5055915;28;20477;-63
2020/12/31 07:32:59;;;;;;;5.43;2.72;;;21.90;74.30;;;;;;5053978;28;20052;-62
2020/12/31 07:35:39;;;;;;;6.32;2.30;;;21.90;74.30;;;;;;5051403;28;20564;-65
2020/12/31 07:38:12;;;;;;;5.05;2.33;;;22.00;74.30;;;;;;5063626;28;20032;-63
2020/12/31 07:40:54;;;;;;;6.25;2.50;;;22.00;74.30;;;;;;5055154;28;20040;-61
2020/12/31 07:43:28;;;;;;;4.78;2.50;;;22.00;74.20;;;;;;5045994;28;20056;-66
2020/12/31 07:46:01;;;;;;;4.18;1.98;;;22.00;74.20;;;;;;5051315;28;20120;-62
2020/12/31 07:48:36;;;;;;;5.55;2.25;;;22.00;74.20;;;;;;5070183;28;20048;-65
2020/12/31 07:51:09;;;;;;;5.10;2.40;;;22.00;74.10;;;;;;5059970;28;20543;-66
2020/12/31 07:53:41;;;;;;;5.05;2.60;;;22.00;74.10;;;;;;5056622;28;20041;-66
2020/12/31 07:56:13;;;;;;;4.03;2.08;;;22.10;74.10;;;;;;5063346;28;20037;-63
2020/12/31 07:58:45;;;;;;;3.65;1.88;;;22.10;74.00;;;;;;5055111;28;20047;-67
2020/12/31 08:01:23;;;;;;;6.75;2.25;;;22.10;74.00;;;;;;5059108;28;20064;-65
2020/12/31 08:03:54;;;;;;;5.63;2.17;;;22.10;74.00;;;;;;5057870;28;20036;-64
2020/12/31 08:06:28;;;;;;;6.22;2.30;;;22.10;74.20;;;;;;5057522;28;20040;-64
2020/12/31 08:08:58;;;;;;;7.38;2.15;;;22.10;73.80;;;;;;5049131;28;20123;-64
2020/12/31 08:11:36;;;;;;;5.35;2.20;;;22.10;73.80;;;;;;5061748;28;20110;-66
2020/12/31 08:14:07;;;;;;;3.25;1.70;;;22.10;73.70;;;;;;5058560;28;20098;-65
2020/12/31 08:16:40;;;;;;;8.55;2.72;;;22.10;73.60;;;;;;5058069;28;20039;-65
2020/12/31 08:19:12;;;;;;;4.53;2.20;;;22.10;73.60;;;;;;5051366;28;20272;-66
2020/12/31 08:21:42;;;;;;;;;;;22.10;73.60;;;;;;5059920;28;20337;-66
2020/12/31 08:24:19;;;;;;;4.45;2.03;;;22.10;73.60;;;;;;5053868;28;20323;-66
2020/12/31 08:27:03;;;;;;;6.63;2.05;;;22.10;73.50;;;;;;5059217;28;20051;-64
2020/12/31 08:29:36;;;;;;;4.85;1.80;;;22.10;73.50;;;;;;5055696;28;20504;-65
2020/12/31 08:32:07;;;;;;;7.07;2.22;;;22.20;73.50;;;;;;5061157;28;20041;-64
2020/12/31 08:34:37;;;;;;;;;;;22.10;73.30;;;;;;5053418;28;20068;-63
2020/12/31 08:37:07;;;;;;;3.08;2.20;;;22.10;73.40;;;;;;5054032;28;20665;-63
2020/12/31 08:39:37;;;;;;;7.45;2.15;;;22.10;73.30;;;;;;5058989;28;20055;-63
2020/12/31 08:42:12;;;;;;;6.07;2.20;;;22.10;73.30;;;;;;5063134;28;20124;-63
2020/12/31 08:44:44;;;;;;;2.85;1.80;;;22.20;73.30;;;;;;5057369;28;20040;-63
2020/12/31 08:47:22;;;;;;;4.95;2.45;;;22.10;73.30;;;;;;5054960;28;20045;-63
2020/12/31 08:49:58;;;;;;;5.38;2.17;;;22.10;73.10;;;;;;5062816;28;20052;-66
2020/12/31 08:52:30;;;;;;;7.32;2.20;;;22.10;73.20;;;;;;5057203;28;20037;-65
2020/12/31 08:55:11;;;;;;;5.93;2.38;;;22.10;73.00;;;;;;5062745;28;20124;-63
2020/12/31 08:57:42;;;;;;;7.65;2.20;;;22.10;73.10;;;;;;5041714;28;20036;-64
2020/12/31 09:00:13;;;;;;;4.07;2.47;;;22.10;73.00;;;;;;5063866;28;20032;-64
2020/12/31 09:02:55;;;;;;;5.40;2.30;;;22.10;73.00;;;;;;5054674;28;20055;-65
2020/12/31 09:05:26;;;;;;;5.18;2.10;;;22.10;73.00;;;;;;5040329;28;20383;-66
2020/12/31 09:08:17;;;;;;;;;;;22.10;72.90;;;;;;5052040;28;20339;-64
2020/12/31 09:11:08;;;;;;;8.60;2.08;;;22.10;72.80;;;;;;5056036;28;20573;-65
2020/12/31 09:13:40;;;;;;;5.72;1.98;;;22.10;72.80;;;;;;5057096;28;20048;-63
2020/12/31 09:16:13;;;;;;;4.70;1.88;;;22.10;72.70;;;;;;5059126;28;20037;-65
2020/12/31 09:18:46;;;;;;;4.88;2.28;;;22.10;72.70;;;;;;5060796;28;20512;-65
2020/12/31 09:21:17;;;;;;;4.47;1.67;;;22.10;72.70;;;;;;5043719;28;20555;-65
2020/12/31 09:23:49;;;;;;;5.35;1.65;;;22.10;72.50;;;;;;5050311;28;20121;-65
2020/12/31 09:26:28;;;;;;;7.47;1.92;;;22.00;72.40;;;;;;5054048;28;20036;-65
2020/12/31 09:28:58;;;;;;;5.78;1.40;;;22.00;72.40;;;;;;5054013;28;20546;-64
2020/12/31 09:31:28;;;;;;;5.72;1.65;;;22.00;72.30;;;;;;5051938;28;20045;-66
2020/12/31 09:33:58;;;;;;;7.20;4.35;;;22.00;72.30;;;;;;5034581;28;20052;-66
2020/12/31 09:36:30;;;;;;;3.17;1.63;;;22.00;72.20;;;;;;5055984;28;20420;-65
2020/12/31 09:39:01;;;;;;;2.60;1.58;;;21.90;72.20;;;;;;5055479;28;20152;-65
2020/12/31 09:41:31;;;;;;;2.58;1.30;;;22.00;72.10;;;;;;5053359;28;20044;-65
2020/12/31 09:44:02;;;;;;;3.80;1.33;;;21.90;72.00;;;;;;5050032;28;20064;-65
2020/12/31 09:46:32;;;;;;;5.13;1.65;;;21.90;71.90;;;;;;5056493;28;20048;-65
2020/12/31 09:49:05;;;;;;;;;;;21.90;71.80;;;;;;5053476;28;20033;-66
2020/12/31 09:51:38;;;;;;;3.30;1.65;;;21.90;71.90;;;;;;5058010;28;19935;-66
2020/12/31 09:54:10;;;;;;;6.47;1.20;;;21.90;71.90;;;;;;5058220;28;20564;-62
2020/12/31 09:56:43;;;;;;;4.00;1.40;;;21.90;71.80;;;;;;5056397;28;20045;-66
2020/12/31 09:59:17;;;;;;;8.90;2.38;;;21.90;71.80;;;;;;5055814;28;20094;-67
2020/12/31 10:01:47;;;;;;;6.95;1.60;;;21.70;70.80;;;;;;5056185;28;20058;-66
2020/12/31 10:04:19;;;;;;;7.20;1.80;;;21.60;71.00;;;;;;5054817;28;20570;-66
2020/12/31 10:06:53;;;;;;;4.35;1.50;;;21.30;70.90;;;;;;5040994;28;20492;-66
2020/12/31 10:09:27;;;;;;;4.60;2.25;;;21.10;71.60;;;;;;5054117;28;20288;-66
2020/12/31 10:12:00;;;;;;;9.63;1.40;;;21.00;72.30;;;;;;5054220;28;20067;-66
2020/12/31 10:14:32;;;;;;;4.70;1.40;;;21.10;72.60;;;;;;5075066;28;20036;-66
2020/12/31 10:17:02;;;;;;;3.60;1.40;;;21.00;72.30;;;;;;5077923;28;20116;-66
2020/12/31 10:19:34;;;;;;;3.50;1.58;;;20.90;72.70;;;;;;5071577;28;20051;-67
2020/12/31 10:22:09;;;;;;;11.77;2.13;;;20.90;72.60;;;;;;5075084;28;20519;-67
2020/12/31 10:24:42;;;;;;;5.85;1.50;;;20.90;72.70;;;;;;5073516;28;20117;-68
2020/12/31 10:27:12;;;;;;;2.25;1.70;;;20.90;73.10;;;;;;5072434;28;20380;-67
2020/12/31 10:29:42;;;;;;;3.67;1.63;;;20.80;72.90;;;;;;5076054;28;20496;-67
2020/12/31 10:32:12;;;;;;;3.72;1.83;;;20.80;73.30;;;;;;5073215;28;20830;-67
2020/12/31 10:34:42;;;;;;;3.92;1.48;;;20.80;72.90;;;;;;5073421;28;20054;-67
2020/12/31 10:37:13;;;;;;;6.25;1.20;;;20.70;72.70;;;;;;5078158;28;20089;-67
2020/12/31 10:39:43;;;;;;;8.30;1.83;;;20.60;73.10;;;;;;5076687;28;20067;-67
2020/12/31 10:42:13;;;;;;;7.10;1.85;;;20.50;73.30;;;;;;5074555;28;20127;-67
2020/12/31 10:44:46;;;;;;;4.50;1.30;;;20.50;73.10;;;;;;5072650;28;20055;-67
2020/12/31 10:47:17;;;;;;;4.82;1.10;;;20.40;73.40;;;;;;5080578;28;20044;-68
2020/12/31 10:49:49;;;;;;;5.97;1.52;;;20.40;73.80;;;;;;5071929;28;20063;-68
2020/12/31 10:52:20;;;;;;;6.65;1.35;;;20.30;74.00;;;;;;5062453;28;20095;-68
2020/12/31 10:54:54;;;;;;;4.33;1.53;;;20.10;73.80;;;;;;5084475;28;20043;-64
2020/12/31 10:57:25;;;;;;;4.50;1.40;;;20.10;74.20;;;;;;5078077;28;20136;-66
2020/12/31 10:59:55;;;;;;;4.68;1.15;;;20.20;74.40;;;;;;5080401;28;20043;-66
2020/12/31 11:02:27;;;;;;;9.65;2.20;;;20.10;74.40;;;;;;5080461;28;20051;-64
2020/12/31 11:04:58;;;;;;;10.80;1.97;;;20.10;74.30;;;;;;5078695;28;20132;-67
2020/12/31 11:07:29;;;;;;;8.32;1.60;;;19.90;74.40;;;;;;5074419;28;20036;-66
2020/12/31 11:10:01;;;;;;;12.80;1.63;;;20.00;75.00;;;;;;5084904;28;20075;-67
2020/12/31 11:12:36;;;;;;;7.03;1.67;;;20.00;74.50;;;;;;5081119;28;20036;-66
2020/12/31 11:15:05;;;;;;;4.88;1.35;;;19.90;74.50;;;;;;5080755;28;20148;-66
2020/12/31 11:17:36;;;;;;;5.63;1.80;;;19.90;74.70;;;;;;5080519;28;20048;-66
2020/12/31 11:20:08;;;;;;;5.53;1.63;;;20.00;75.10;;;;;;5062534;28;20066;-66
2020/12/31 11:22:39;;;;;;;8.73;2.13;;;19.90;75.60;;;;;;5079717;28;20040;-65
2020/12/31 11:25:08;;;;;;;6.22;1.30;;;19.90;74.50;;;;;;5079898;28;20051;-66
2020/12/31 11:27:38;;;;;;;4.65;1.98;;;19.80;75.00;;;;;;5073340;28;20052;-65
2020/12/31 11:30:08;;;;;;;6.80;1.40;;;19.70;74.70;;;;;;5064452;28;20055;-65
2020/12/31 11:32:42;;;;;;;4.10;1.40;;;19.70;74.90;;;;;;5082495;28;20040;-64
2020/12/31 11:35:11;;;;;;;5.43;1.50;;;19.70;75.30;;;;;;5085101;28;20457;-65
2020/12/31 11:37:41;;;;;;;6.53;2.38;;;19.80;75.40;;;;;;5074002;28;20415;-65
2020/12/31 11:40:11;;;;;;;8.23;1.50;;;19.80;75.20;;;;;;5055997;28;20048;-65
2020/12/31 11:42:40;;;;;;;9.38;1.83;;;19.70;74.90;;;;;;5072082;28;20051;-65
2020/12/31 11:45:11;;;;;;;2.45;1.60;;;19.70;75.30;;;;;;5075293;28;20072;-65
2020/12/31 11:47:43;;;;;;;10.35;1.63;;;19.70;75.30;;;;;;5080522;28;20086;-66
2020/12/31 11:50:13;;;;;;;9.75;1.95;;;19.70;75.30;;;;;;5080145;28;20051;-68
2020/12/31 11:52:45;;;;;;;10.98;1.75;;;19.60;75.20;;;;;;5075038;28;20041;-65
2020/12/31 11:55:15;;;;;;;12.43;1.83;;;19.60;75.20;;;;;;5073356;28;20044;-67
2020/12/31 11:57:46;;;;;;;8.18;1.90;;;19.60;75.30;;;;;;5073029;28;20370;-66
2020/12/31 12:00:18;;;;;;;7.10;1.63;;;19.50;75.30;;;;;;5082313;28;20054;-66
2020/12/31 12:02:49;;;;;;;5.43;1.50;;;19.40;75.60;;;;;;5057552;28;20427;-63
2020/12/31 12:05:22;;;;;;;6.57;1.52;;;19.40;75.50;;;;;;5080582;28;20045;-65
2020/12/31 12:07:53;;;;;;;7.07;1.63;;;19.40;75.60;;;;;;5072049;28;20044;-65
2020/12/31 12:10:25;;;;;;;4.88;1.65;;;19.40;75.50;;;;;;5080099;28;20044;-64
2020/12/31 12:12:57;;;;;;;5.43;2.10;;;19.40;75.60;;;;;;5067923;28;20547;-67
2020/12/31 12:15:28;;;;;;;6.35;1.80;;;19.30;75.40;;;;;;5073107;28;20142;-66
2020/12/31 12:18:01;;;;;;;5.93;2.05;;;19.20;75.40;;;;;;5070321;28;20485;-66
2020/12/31 12:20:32;;;;;;;5.35;1.80;;;19.20;75.90;;;;;;5050623;28;20041;-66
2020/12/31 12:23:04;;;;;;;4.70;1.92;;;19.20;75.70;;;;;;5064027;28;20115;-66
2020/12/31 12:25:34;;;;;;;5.30;1.90;;;19.10;75.70;;;;;;5076029;28;20557;-66
2020/12/31 12:28:04;;;;;;;8.30;1.77;;;19.10;76.30;;;;;;5068323;28;20351;-67
2020/12/31 12:30:34;;;;;;;8.40;1.63;;;19.10;76.20;;;;;;5072020;28;20067;-65
2020/12/31 12:33:04;;;;;;;8.90;1.67;;;19.10;76.60;;;;;;5049119;28;20040;-63
2020/12/31 12:35:34;;;;;;;7.28;1.60;;;19.20;75.90;;;;;;5069460;28;20075;-66
2020/12/31 12:38:07;;;;;;;5.10;2.00;;;19.10;76.00;;;;;;5066094;28;20051;-65
2020/12/31 12:40:36;;;;;;;7.20;1.83;;;19.10;76.30;;;;;;5070185;28;20051;-62
2020/12/31 12:43:06;;;;;;;5.82;1.52;;;19.20;76.50;;;;;;5077112;28;20054;-65
2020/12/31 12:45:36;;;;;;;8.30;1.98;;;19.10;75.90;;;;;;5065192;28;20055;-64
2020/12/31 12:48:07;;;;;;;7.00;1.30;;;18.90;75.80;;;;;;5076620;28;20040;-67
2020/12/31 12:50:39;;;;;;;5.53;1.65;;;18.90;76.30;;;;;;5067625;28;20037;-62
2020/12/31 12:53:10;;;;;;;7.30;2.22;;;18.80;76.50;;;;;;5072175;28;20700;-68
2020/12/31 12:55:41;;;;;;;7.80;1.40;;;18.80;76.40;;;;;;5056404;28;20046;-63
2020/12/31 12:58:12;;;;;;;9.30;2.08;;;18.70;77.00;;;;;;5071133;28;20076;-65
2020/12/31 13:00:43;;;;;;;6.55;1.35;;;18.80;76.80;;;;;;5069342;28;20554;-66
2020/12/31 13:03:13;;;;;;;6.40;1.38;;;18.80;76.80;;;;;;5076288;28;20135;-64
2020/12/31 13:05:44;;;;;;;;;;;18.70;76.70;;;;;;5078442;28;20075;-66
2020/12/31 13:08:21;;;;;;;8.07;1.40;;;18.70;77.10;;;;;;5072379;28;19930;-66
2020/12/31 13:10:52;;;;;;;8.13;1.83;;;18.70;76.70;;;;;;5052937;28;20055;-65
2020/12/31 13:13:23;;;;;;;5.03;1.50;;;18.50;76.90;;;;;;5083786;28;20044;-65
2020/12/31 13:15:53;;;;;;;7.03;1.33;;;18.50;77.50;;;;;;5070911;28;20072;-63
2020/12/31 13:18:24;;;;;;;4.82;1.65;;;18.50;77.40;;;;;;5073965;28;20044;-64